createdAt,value
2022-12-05T00:00:48.591Z,12.8
2022-12-05T00:02:52.482Z,24.2
2022-12-05T00:04:56.316Z,15.7
2022-12-05T00:09:07.288Z,18.1
2022-12-05T00:11:11.163Z,17.3
2022-12-05T00:15:19.008Z,22.5
2022-12-05T00:19:26.664Z,26.9
2022-12-05T00:23:37.413Z,31.7
2022-12-05T00:25:41.348Z,18.2
2022-12-05T00:27:45.274Z,20.5
2022-12-05T00:29:49.066Z,6.3
2022-12-05T00:31:52.956Z,17.6
2022-12-05T00:33:56.747Z,21.3
2022-12-05T00:36:00.647Z,26.7
2022-12-05T00:38:07.598Z,24.3
2022-12-05T00:40:11.395Z,28.4
2022-12-05T00:42:15.237Z,31.7
2022-12-05T00:44:33.413Z,27.4
2022-12-05T00:46:37.384Z,21.6
2022-12-05T00:48:41.021Z,30.5
2022-12-05T00:50:47.944Z,22.8
2022-12-05T00:52:51.774Z,19.6
2022-12-05T00:54:55.699Z,50.8
2022-12-05T00:56:59.519Z,20.1
2022-12-05T01:01:07.463Z,25.2
2022-12-05T01:03:11.375Z,18.9
2022-12-05T01:05:18.248Z,44.7
2022-12-05T01:07:22.167Z,26.9
2022-12-05T01:09:25.984Z,23.2
2022-12-05T01:11:29.788Z,18.6
2022-12-05T01:15:37.437Z,22.6
2022-12-05T01:17:41.281Z,21.9
2022-12-05T01:19:48.264Z,87.5
2022-12-05T01:21:52.147Z,25.3
2022-12-05T01:23:55.965Z,29.7
2022-12-05T01:25:59.783Z,15.8
2022-12-05T01:28:03.711Z,18.4
2022-12-05T01:30:07.532Z,16.9
2022-12-05T01:32:11.480Z,27.4
2022-12-05T01:34:18.404Z,16.3
2022-12-05T01:36:22.317Z,7.8
2022-12-05T01:38:26.223Z,26.5
2022-12-05T01:43:37.285Z,26.1
2022-12-05T01:47:47.935Z,20.6
2022-12-05T01:49:51.758Z,12.2
2022-12-05T01:51:55.578Z,15.2
2022-12-05T01:53:59.516Z,61.1
2022-12-05T01:58:07.213Z,25
2022-12-05T02:02:18.021Z,27.7
2022-12-05T02:06:25.552Z,24
2022-12-05T02:08:29.461Z,17.8
2022-12-05T02:10:33.290Z,20.7
2022-12-05T02:12:39.079Z,22.1
2022-12-05T02:14:41.433Z,31.8
2022-12-05T02:16:47.906Z,18.2
2022-12-05T02:18:51.851Z,20.1
2022-12-05T02:20:55.805Z,30.9
2022-12-05T02:22:59.568Z,37.4
2022-12-05T02:25:03.493Z,35.1
2022-12-05T02:29:11.041Z,27.5
2022-12-05T02:31:17.948Z,31.5
2022-12-05T02:36:29.158Z,26.3
2022-12-05T02:38:33.089Z,36.1
2022-12-05T02:40:37.749Z,32.7
2022-12-05T02:48:55.364Z,34.3
2022-12-05T02:50:59.340Z,35
2022-12-05T02:53:03.116Z,31.3
2022-12-05T02:55:06.934Z,30.4
2022-12-05T02:57:10.807Z,35.2
2022-12-05T02:59:23.097Z,38.1
2022-12-05T03:01:22.083Z,37.7
2022-12-05T03:03:25.594Z,31.5
2022-12-05T03:05:29.398Z,43
2022-12-05T03:07:33.315Z,40.3
2022-12-05T03:09:37.132Z,35.4
2022-12-05T03:11:40.989Z,44.3
2022-12-05T03:15:51.905Z,48.4
2022-12-05T03:17:55.723Z,38.3
2022-12-05T03:20:00.112Z,36.5
2022-12-05T03:24:07.314Z,35.3
2022-12-05T03:26:11.251Z,35
2022-12-05T03:28:18.096Z,38.5
2022-12-05T03:30:22.027Z,35.3
2022-12-05T03:32:25.854Z,38
2022-12-05T03:33:29.307Z,63.5
2022-12-05T03:35:33.160Z,34.4
2022-12-05T03:37:37.011Z,36.8
2022-12-05T03:39:40.872Z,39.4
2022-12-05T03:43:51.632Z,40.5
2022-12-05T03:47:59.510Z,36.5
2022-12-05T03:50:03.451Z,31.6
2022-12-05T03:52:07.301Z,33.2
2022-12-05T03:54:11.143Z,32.8
2022-12-05T03:56:18.113Z,38.7
2022-12-05T03:58:22.062Z,35.4
2022-12-05T04:06:37.434Z,32
2022-12-05T04:08:41.381Z,32.9
2022-12-05T04:10:48.358Z,38.5
2022-12-05T04:12:52.306Z,41.9
2022-12-05T04:14:56.165Z,37.6
2022-12-05T04:21:07.675Z,46.7
2022-12-05T04:23:11.610Z,46
2022-12-05T04:25:18.590Z,49.8
2022-12-05T04:27:22.406Z,50.1
2022-12-05T04:29:26.254Z,48.9
2022-12-05T04:31:50.720Z,56.7
2022-12-05T04:35:58.396Z,56.2
2022-12-05T04:38:05.460Z,53.9
2022-12-05T04:42:13.115Z,62.5
2022-12-05T04:44:17.084Z,61.7
2022-12-05T04:50:28.792Z,66.5
2022-12-05T04:52:35.788Z,70.6
2022-12-05T04:54:39.636Z,67
2022-12-05T04:56:43.475Z,68.1
2022-12-05T04:58:47.327Z,73
2022-12-05T05:00:51.156Z,63.8
2022-12-05T05:02:55.142Z,67.7
2022-12-05T05:04:58.946Z,68.6
2022-12-05T05:07:05.825Z,77.3
2022-12-05T05:09:09.656Z,82.9
2022-12-05T05:11:13.501Z,87.1
2022-12-05T05:13:17.440Z,81.6
2022-12-05T05:15:21.331Z,79.8
2022-12-05T05:17:25.163Z,80.9
2022-12-05T05:19:29.080Z,86.1
2022-12-05T05:21:35.958Z,92.2
2022-12-05T05:23:39.822Z,91.2
2022-12-05T05:25:43.666Z,94.1
2022-12-05T05:26:49.185Z,75.5
2022-12-05T05:28:50.951Z,91.2
2022-12-05T05:30:54.868Z,87.8
2022-12-05T05:33:00.227Z,94.7
2022-12-05T05:35:07.083Z,109.3
2022-12-05T05:37:11.030Z,105.3
2022-12-05T05:41:18.882Z,105.1
2022-12-05T05:43:22.680Z,110
2022-12-05T05:45:26.513Z,105.7
2022-12-05T05:47:30.369Z,104.3
2022-12-05T05:49:37.370Z,115.7
2022-12-05T05:53:45.158Z,107.8
2022-12-05T05:55:49.118Z,94.2
2022-12-05T05:57:53.053Z,117
2022-12-05T05:59:57.116Z,118.7
2022-12-05T06:02:00.738Z,116.6
2022-12-05T06:04:07.943Z,125.2
2022-12-05T06:06:11.535Z,118.9
2022-12-05T06:08:15.383Z,128.3
2022-12-05T06:10:19.178Z,122.5
2022-12-05T06:12:23.040Z,119.7
2022-12-05T06:14:26.892Z,132.8
2022-12-05T06:16:30.849Z,128.7
2022-12-05T06:18:37.606Z,139.4
2022-12-05T06:20:41.461Z,135.5
2022-12-05T06:22:45.299Z,137.1
2022-12-05T06:23:48.751Z,142
2022-12-05T06:25:52.587Z,137.1
2022-12-05T06:27:56.463Z,140.1
2022-12-05T06:30:00.648Z,128.5
2022-12-05T06:32:07.800Z,141.6
2022-12-05T06:34:11.563Z,144.6
2022-12-05T06:36:15.411Z,141.3
2022-12-05T06:38:19.272Z,145.7
2022-12-05T06:40:23.087Z,146.3
2022-12-05T06:42:26.941Z,145.9
2022-12-05T06:44:30.824Z,154.3
2022-12-05T06:48:41.552Z,150.7
2022-12-05T06:50:45.422Z,153.3
2022-12-05T06:52:49.267Z,154.3
2022-12-05T06:56:56.987Z,162.6
2022-12-05T06:59:00.850Z,170.4
2022-12-05T07:01:07.788Z,167.5
2022-12-05T07:03:11.593Z,162.9
2022-12-05T07:07:19.306Z,163.8
2022-12-05T07:11:26.992Z,163.4
2022-12-05T07:13:30.882Z,176
2022-12-05T07:15:37.871Z,189.6
2022-12-05T07:17:41.703Z,189.6
2022-12-05T07:19:45.571Z,190.2
2022-12-05T07:21:11.211Z,157.8
2022-12-05T07:24:56.759Z,182.7
2022-12-05T07:31:11.381Z,23.6
2022-12-05T07:35:19.222Z,30
2022-12-05T07:39:27.036Z,28.1
2022-12-05T07:45:41.717Z,22.1
2022-12-05T07:47:45.580Z,20.8
2022-12-05T07:49:49.406Z,26.3
2022-12-05T08:04:19.570Z,22.5
2022-12-05T08:08:27.302Z,25
2022-12-05T08:10:31.241Z,12.1
2022-12-05T08:12:38.074Z,26.9
2022-12-05T08:14:41.928Z,25.9
2022-12-05T08:19:04.258Z,23.6
2022-12-05T08:21:08.148Z,12.9
2022-12-05T08:23:12.015Z,24.1
2022-12-05T08:25:18.913Z,21
2022-12-05T08:27:22.772Z,24.5
2022-12-05T08:29:26.659Z,34.7
2022-12-05T08:31:30.638Z,16.5
2022-12-05T08:33:34.414Z,25
2022-12-05T08:35:38.277Z,15.7
2022-12-05T08:37:42.145Z,11.5
2022-12-05T08:41:52.925Z,23.8
2022-12-05T08:43:56.811Z,20.3
2022-12-05T08:46:00.821Z,20.7
2022-12-05T08:48:04.644Z,10.1
2022-12-05T08:50:08.511Z,18.9
2022-12-05T08:52:12.451Z,17.9
2022-12-05T08:58:27.044Z,24.2
2022-12-05T09:00:30.940Z,26.2
2022-12-05T09:02:34.905Z,20.9
2022-12-05T09:04:38.677Z,21
2022-12-05T09:06:42.533Z,18.2
2022-12-05T09:08:49.432Z,28.5
2022-12-05T09:10:53.336Z,29.2
2022-12-05T09:12:57.222Z,17.9
2022-12-05T09:14:00.669Z,27.6
2022-12-05T09:18:08.421Z,28.4
2022-12-05T09:20:12.306Z,15.3
2022-12-05T09:26:26.936Z,22.4
2022-12-05T09:28:30.819Z,30.1
2022-12-05T09:30:34.724Z,22.7
2022-12-05T09:32:38.615Z,29.7
2022-12-05T09:34:42.483Z,23.7
2022-12-05T09:36:49.389Z,22.1
2022-12-05T09:40:59.072Z,16.5
2022-12-05T09:43:01.064Z,16
2022-12-05T09:49:12.706Z,14.9
2022-12-05T09:51:19.595Z,19
2022-12-05T09:53:23.476Z,26.2
2022-12-05T09:55:27.421Z,12.8
2022-12-05T09:57:33.915Z,19.4
2022-12-05T09:59:35.144Z,34.1
2022-12-05T10:01:39.256Z,16.8
2022-12-05T10:03:42.916Z,12.7
2022-12-05T10:05:49.810Z,15
2022-12-05T10:07:53.753Z,16.3
2022-12-05T10:09:57.597Z,13.6
2022-12-05T10:11:01.054Z,13.3
2022-12-05T10:13:04.926Z,9.8
2022-12-05T10:15:08.811Z,13.7
2022-12-05T10:17:12.706Z,16.5
2022-12-05T10:19:19.635Z,13.4
2022-12-05T10:21:23.540Z,17.2
2022-12-05T10:23:56.039Z,22
2022-12-05T10:25:31.302Z,12
2022-12-05T10:27:39.703Z,13
2022-12-05T10:29:39.070Z,9.6
2022-12-05T10:31:42.991Z,12.9
2022-12-05T10:33:49.857Z,18.8
2022-12-05T10:35:53.761Z,13.9
2022-12-05T10:37:57.718Z,12.6
2022-12-05T10:40:01.554Z,14.3
2022-12-05T10:42:05.411Z,16
2022-12-05T10:44:09.301Z,13
2022-12-05T10:46:16.968Z,11.2
2022-12-05T10:52:27.874Z,7.7
2022-12-05T10:54:31.760Z,12.5
2022-12-05T11:00:43.437Z,7.2
2022-12-05T11:02:50.381Z,19.9
2022-12-05T11:04:54.228Z,5.9
2022-12-05T11:06:58.101Z,5.1
2022-12-05T11:08:01.678Z,7.4
2022-12-05T11:10:05.458Z,6.5
2022-12-05T11:14:13.243Z,33.3
2022-12-05T11:16:20.189Z,5.9
2022-12-05T11:18:24.030Z,2.4
2022-12-05T11:20:27.931Z,3
2022-12-05T11:22:31.787Z,1.2
2022-12-05T11:24:35.725Z,6.1
2022-12-05T11:26:39.577Z,7.1
2022-12-05T11:28:43.465Z,9.4
2022-12-05T11:37:03.704Z,3
2022-12-05T11:39:07.552Z,13.9
2022-12-05T11:41:11.430Z,4
2022-12-05T11:43:15.318Z,0.9
2022-12-05T11:53:37.774Z,3.6
2022-12-05T11:55:41.668Z,2.9
2022-12-05T11:57:51.858Z,1.6
2022-12-05T12:04:00.237Z,2.5
2022-12-05T12:06:24.225Z,3.8
2022-12-05T12:08:28.093Z,1.5
2022-12-05T12:10:32.090Z,1.7
2022-12-05T12:14:42.811Z,1.5
2022-12-05T12:16:46.752Z,2.8
2022-12-05T12:18:50.591Z,1.1
2022-12-05T12:20:54.479Z,2.8
2022-12-05T12:22:58.352Z,4.9
2022-12-05T12:25:02.281Z,1.5
2022-12-05T12:33:26.840Z,2.5
2022-12-05T12:35:24.724Z,5.3
2022-12-05T12:37:28.618Z,7.1
2022-12-05T12:39:32.513Z,1.3
2022-12-05T12:41:39.422Z,7.5
2022-12-05T12:43:53.765Z,8.5
2022-12-05T12:45:47.275Z,5.1
2022-12-05T12:47:51.091Z,6
2022-12-05T12:49:55.002Z,0.8
2022-12-05T12:54:02.781Z,3
2022-12-05T12:56:09.751Z,1.9
2022-12-05T12:58:13.562Z,12.2
2022-12-05T13:00:17.465Z,9.5
2022-12-05T13:01:20.975Z,1.4
2022-12-05T13:03:24.820Z,1.6
2022-12-05T13:07:32.660Z,6.1
2022-12-05T13:09:39.525Z,2.6
2022-12-05T13:11:43.412Z,6.1
2022-12-05T13:13:47.319Z,1.4
2022-12-05T13:15:51.199Z,4.9
2022-12-05T13:17:55.094Z,6.7
2022-12-05T13:19:58.991Z,3.5
2022-12-05T13:22:03.888Z,4.9
2022-12-05T13:24:09.786Z,3.6
2022-12-05T13:26:13.670Z,4.9
2022-12-05T13:28:21.376Z,4.3
2022-12-05T13:30:21.448Z,1.8
2022-12-05T13:32:25.358Z,6.2
2022-12-05T13:36:33.105Z,1.2
2022-12-05T13:38:40.120Z,8.1
2022-12-05T13:42:48.243Z,3.2
2022-12-05T13:44:51.700Z,2.8
2022-12-05T13:46:55.582Z,4.9
2022-12-05T13:48:59.472Z,3.6
2022-12-05T13:51:03.361Z,5.7
2022-12-05T13:53:10.284Z,3.9
2022-12-05T13:55:14.150Z,1.4
2022-12-05T13:57:18.070Z,2.2
2022-12-05T13:58:21.500Z,3.5
2022-12-05T14:00:25.390Z,11
2022-12-05T14:04:33.152Z,1.5
2022-12-05T14:08:43.973Z,3.8
2022-12-05T14:10:47.841Z,2.7
2022-12-05T14:12:51.746Z,1.1
2022-12-05T14:23:14.182Z,7.4
2022-12-05T14:25:18.077Z,5.2
2022-12-05T14:27:21.988Z,0.8
2022-12-05T14:29:25.838Z,0.6
2022-12-05T14:31:29.747Z,2.2
2022-12-05T14:33:33.628Z,4.6
2022-12-05T14:37:46.970Z,0.9
2022-12-05T14:41:52.191Z,2.1
2022-12-05T14:46:00.036Z,3
2022-12-05T14:48:03.850Z,5.1
2022-12-05T14:50:10.743Z,3.4
2022-12-05T14:52:14.627Z,4.3
2022-12-05T14:55:26.630Z,5.6
2022-12-05T14:57:25.834Z,1.2
2022-12-05T15:03:40.525Z,3.3
2022-12-05T15:05:44.419Z,3.6
2022-12-05T15:07:48.333Z,3.1
2022-12-05T15:09:52.150Z,5
2022-12-05T15:11:56.151Z,4
2022-12-05T15:14:00.134Z,2.6
2022-12-05T15:16:04.115Z,2.9
2022-12-05T15:18:10.844Z,2.6
2022-12-05T15:20:14.687Z,1.2
2022-12-05T15:22:18.580Z,1.6
2022-12-05T15:24:22.453Z,1.7
2022-12-05T15:26:46.199Z,7
2022-12-05T15:28:30.103Z,1.1
2022-12-05T15:30:33.977Z,4.4
2022-12-05T15:32:40.895Z,2.6
2022-12-05T15:34:44.769Z,1.2
2022-12-05T15:38:52.512Z,2.4
2022-12-05T15:40:56.429Z,154.1
2022-12-05T15:43:00.318Z,147.4
2022-12-05T15:45:04.188Z,158.5
2022-12-05T15:47:11.089Z,184.4
2022-12-05T15:49:14.959Z,178.8
2022-12-05T15:51:18.862Z,172.9
2022-12-05T15:53:37.545Z,194
2022-12-05T15:55:41.415Z,176.7
2022-12-05T15:57:45.278Z,178.1
2022-12-05T15:59:52.169Z,185.8
2022-12-05T16:01:56.146Z,170.3
2022-12-05T16:04:00.000Z,162.1
2022-12-05T16:06:03.865Z,151.2
2022-12-05T16:08:07.819Z,155
2022-12-05T16:10:11.652Z,160.8
2022-12-05T16:12:15.573Z,152.5
2022-12-05T16:14:51.427Z,143.8
2022-12-05T16:16:26.404Z,135.1
2022-12-05T16:18:30.253Z,140.2
2022-12-05T16:20:34.130Z,129.2
2022-12-05T16:24:41.998Z,126.6
2022-12-05T16:26:45.846Z,121.2
2022-12-05T16:28:52.727Z,122.3
2022-12-05T16:33:00.558Z,125.9
2022-12-05T16:35:04.430Z,124
2022-12-05T16:39:14.964Z,96.5
2022-12-05T16:41:16.162Z,100.1
2022-12-05T16:43:23.036Z,115.9
2022-12-05T16:47:30.811Z,97.7
2022-12-05T16:48:34.275Z,110.2
2022-12-05T16:50:38.174Z,98.9
2022-12-05T16:52:42.076Z,112
2022-12-05T16:54:45.956Z,101.8
2022-12-05T16:56:52.867Z,119.7
2022-12-05T16:58:56.761Z,107.1
2022-12-05T17:01:00.679Z,103.4
2022-12-05T17:03:32.310Z,104.2
2022-12-05T17:05:08.453Z,115.8
2022-12-05T17:07:12.346Z,122.5
2022-12-05T17:11:23.160Z,127.6
2022-12-05T17:13:27.040Z,123
2022-12-05T17:15:30.939Z,117
2022-12-05T17:17:34.812Z,121.4
2022-12-05T17:19:38.716Z,129.2
2022-12-05T17:21:42.755Z,125.5
2022-12-05T17:23:48.076Z,123.1
2022-12-05T17:25:55.061Z,136.9
2022-12-05T17:27:58.930Z,143.2
2022-12-05T17:30:02.818Z,152
2022-12-05T17:32:06.706Z,158.6
2022-12-05T17:34:10.601Z,162.7
2022-12-05T17:36:14.476Z,162.2
2022-12-05T17:38:18.349Z,166.5
2022-12-05T17:40:25.270Z,190.6
2022-12-05T17:42:29.134Z,184.4
2022-12-05T17:45:36.482Z,191.2
2022-12-05T17:47:40.356Z,192.5
2022-12-05T17:49:44.254Z,204.9
2022-12-05T17:58:02.911Z,218
2022-12-05T18:00:06.766Z,214.5
2022-12-05T18:04:17.649Z,227
2022-12-05T18:06:18.421Z,210
2022-12-05T18:08:25.406Z,230.9
2022-12-05T18:10:29.224Z,233.2
2022-12-05T18:12:33.110Z,239.9
2022-12-05T18:14:36.951Z,237.7
2022-12-05T18:16:40.908Z,242.7
2022-12-05T18:18:44.782Z,225
2022-12-05T18:20:48.642Z,221.6
2022-12-05T18:22:55.502Z,235.9
2022-12-05T18:24:59.552Z,238.6
2022-12-05T18:27:03.292Z,246.6
2022-12-05T18:29:07.190Z,238.8
2022-12-05T18:31:11.139Z,250
2022-12-05T18:33:14.918Z,245.6
2022-12-05T18:35:18.834Z,251.5
2022-12-05T18:37:25.698Z,267.3
2022-12-05T18:41:33.482Z,275.3
2022-12-05T18:44:40.820Z,263.5
2022-12-05T18:48:48.692Z,266
2022-12-05T18:50:55.637Z,267.3
2022-12-05T18:55:16.926Z,264.3
2022-12-05T18:57:07.296Z,269.1
2022-12-05T18:59:11.169Z,277.9
2022-12-05T19:01:15.050Z,278.8
2022-12-05T19:05:25.841Z,286.5
2022-12-05T19:07:29.736Z,290.5
2022-12-05T19:09:33.587Z,297.2
2022-12-05T19:11:37.470Z,301.2
2022-12-05T19:13:41.365Z,302.2
2022-12-05T19:15:45.251Z,306
2022-12-05T19:17:49.133Z,294.6
2022-12-05T19:19:56.011Z,306.6
2022-12-05T19:21:59.918Z,291.6
2022-12-05T19:24:03.814Z,290.6
2022-12-05T19:26:07.728Z,295.1
2022-12-05T19:28:11.549Z,298.9
2022-12-05T19:30:15.416Z,289.8
2022-12-05T19:32:19.308Z,287.5
2022-12-05T19:34:26.213Z,302.7
2022-12-05T19:36:30.117Z,292.7
2022-12-05T19:38:33.972Z,275.5
2022-12-05T19:40:58.346Z,305.9
2022-12-05T19:43:02.255Z,297.2
2022-12-05T19:45:09.520Z,297.3
2022-12-05T19:47:13.031Z,302.9
2022-12-05T19:49:16.904Z,301.6
2022-12-05T19:51:20.793Z,305.8
2022-12-05T19:53:24.710Z,301.3
2022-12-05T19:55:28.568Z,298.4
2022-12-05T19:57:32.462Z,278.6
2022-12-05T19:59:36.330Z,280.9
2022-12-05T20:03:47.155Z,277.9
2022-12-05T20:05:51.003Z,276.7
2022-12-05T20:07:54.905Z,273.5
2022-12-05T20:09:58.976Z,278.5
2022-12-05T20:12:02.657Z,273.8
2022-12-05T20:14:06.558Z,257.6
2022-12-05T20:16:13.451Z,293.3
2022-12-05T20:18:17.344Z,296.2
2022-12-05T20:20:21.315Z,295.3
2022-12-05T20:22:25.095Z,296.2
2022-12-05T20:24:28.996Z,293.1
2022-12-05T20:26:32.868Z,307.2
2022-12-05T20:28:36.738Z,310.9
2022-12-05T20:30:43.761Z,312.9
2022-12-05T20:32:47.558Z,305.2
2022-12-05T20:37:58.770Z,300.7
2022-12-05T20:40:02.702Z,301.1
2022-12-05T20:42:06.620Z,306.1
2022-12-05T20:44:13.489Z,304.9
2022-12-05T20:46:17.482Z,296
2022-12-05T20:48:21.248Z,295.4
2022-12-05T20:50:25.156Z,284.5
2022-12-05T20:52:29.081Z,286.2
2022-12-05T20:54:32.927Z,269.1
2022-12-05T20:56:36.796Z,278.7
2022-12-05T20:58:43.733Z,282.4
2022-12-05T21:00:47.606Z,263.7
2022-12-05T21:02:51.585Z,249.1
2022-12-05T21:04:55.388Z,237.3
2022-12-05T21:06:59.305Z,229.8
2022-12-05T21:09:03.183Z,239.2
2022-12-05T21:11:07.052Z,234.8
2022-12-05T21:13:13.956Z,229
2022-12-05T21:15:17.840Z,227.5
2022-12-05T21:21:29.497Z,191.4
2022-12-05T21:23:33.354Z,192.3
2022-12-05T21:25:37.230Z,199.5
2022-12-05T21:27:44.135Z,218.1
2022-12-05T21:29:48.016Z,220.5
2022-12-05T21:31:51.922Z,219.7
2022-12-05T21:32:55.341Z,223
2022-12-05T21:34:59.226Z,219.3
2022-12-05T21:37:03.116Z,229.5
2022-12-05T21:39:06.981Z,213.2
2022-12-05T21:41:13.905Z,233.5
2022-12-05T21:43:17.749Z,231.8
2022-12-05T21:45:21.636Z,233.9
2022-12-05T21:47:25.508Z,234.4
2022-12-05T21:49:29.398Z,247
2022-12-05T21:51:33.273Z,251
2022-12-05T21:53:37.151Z,245.9
2022-12-05T21:57:47.930Z,257.6
2022-12-05T21:59:51.793Z,258
2022-12-05T22:12:18.062Z,277.7
2022-12-05T22:26:48.231Z,274
2022-12-05T22:28:52.108Z,280.8
2022-12-05T22:29:55.544Z,279.6
2022-12-05T22:31:59.424Z,282.9
2022-12-05T22:34:03.331Z,287.9
2022-12-05T22:36:07.180Z,290.1
2022-12-05T22:38:14.094Z,288.5
2022-12-05T22:46:29.737Z,277.7
2022-12-05T22:50:37.367Z,300.6
2022-12-05T22:54:48.268Z,307.9
2022-12-05T22:58:55.998Z,314.2
2022-12-05T23:05:07.659Z,304.5
2022-12-05T23:09:18.467Z,313.6
2022-12-05T23:13:26.206Z,311.5
2022-12-05T23:15:30.114Z,320.2
2022-12-05T23:19:37.814Z,319.1
2022-12-05T23:23:50.194Z,323.7
2022-12-05T23:28:17.959Z,337.7
2022-12-05T23:30:21.837Z,329.6
2022-12-05T23:32:25.749Z,335.7
2022-12-05T23:34:32.654Z,342.5
2022-12-05T23:36:36.535Z,338.9
2022-12-05T23:38:40.428Z,336.7
2022-12-05T23:40:44.282Z,332.2
2022-12-05T23:42:48.180Z,341
2022-12-05T23:44:52.092Z,334.6
2022-12-05T23:49:02.956Z,344.1
2022-12-05T23:51:06.841Z,341.3
2022-12-05T23:53:10.738Z,340.3
2022-12-05T23:55:14.617Z,348.9
